sensor_id;sensor_type;location;lat;lon;timestamp;temperature;humidity
31733;DHT22;18312;51.486;7.144;2022-07-23T00:03:10;16.20;99.90
31733;DHT22;18312;51.486;7.144;2022-07-23T00:06:31;16.20;99.90
31733;DHT22;18312;51.486;7.144;2022-07-23T00:09:12;16.10;99.90
31733;DHT22;18312;51.486;7.144;2022-07-23T00:11:39;16.10;99.90
31733;DHT22;18312;51.486;7.144;2022-07-23T00:14:06;16.10;99.90
31733;DHT22;18312;51.486;7.144;2022-07-23T00:16:33;16.20;99.90
31733;DHT22;18312;51.486;7.144;2022-07-23T00:19:00;16.10;99.90
31733;DHT22;18312;51.486;7.144;2022-07-23T00:21:29;16.20;99.90
31733;DHT22;18312;51.486;7.144;2022-07-23T00:23:56;16.10;99.90
31733;DHT22;18312;51.486;7.144;2022-07-23T00:26:23;16.10;99.90
31733;DHT22;18312;51.486;7.144;2022-07-23T00:28:50;16.00;99.90
31733;DHT22;18312;51.486;7.144;2022-07-23T00:31:17;16.00;99.90
31733;DHT22;18312;51.486;7.144;2022-07-23T00:33:44;15.90;99.90
31733;DHT22;18312;51.486;7.144;2022-07-23T00:36:10;15.90;99.90
31733;DHT22;18312;51.486;7.144;2022-07-23T00:38:39;15.90;99.90
31733;DHT22;18312;51.486;7.144;2022-07-23T00:41:06;16.00;99.90
31733;DHT22;18312;51.486;7.144;2022-07-23T00:43:32;15.90;99.90
31733;DHT22;18312;51.486;7.144;2022-07-23T00:45:59;16.00;99.90
31733;DHT22;18312;51.486;7.144;2022-07-23T00:48:26;16.00;99.90
31733;DHT22;18312;51.486;7.144;2022-07-23T00:50:53;15.90;99.90
31733;DHT22;18312;51.486;7.144;2022-07-23T00:53:20;15.90;99.90
31733;DHT22;18312;51.486;7.144;2022-07-23T00:55:48;15.90;99.90
31733;DHT22;18312;51.486;7.144;2022-07-23T00:58:16;15.90;99.90
31733;DHT22;18312;51.486;7.144;2022-07-23T01:00:43;15.90;99.90
31733;DHT22;18312;51.486;7.144;2022-07-23T01:03:09;15.90;99.90
31733;DHT22;18312;51.486;7.144;2022-07-23T01:05:36;15.90;99.90
31733;DHT22;18312;51.486;7.144;2022-07-23T01:08:05;15.90;99.90
31733;DHT22;18312;51.486;7.144;2022-07-23T01:10:32;15.90;99.90
31733;DHT22;18312;51.486;7.144;2022-07-23T01:13:04;15.80;99.90
31733;DHT22;18312;51.486;7.144;2022-07-23T01:15:32;15.80;99.90
31733;DHT22;18312;51.486;7.144;2022-07-23T01:18:00;15.80;99.90
31733;DHT22;18312;51.486;7.144;2022-07-23T01:20:27;15.80;99.90
31733;DHT22;18312;51.486;7.144;2022-07-23T01:22:55;15.80;99.90
31733;DHT22;18312;51.486;7.144;2022-07-23T01:25:22;15.70;99.90
31733;DHT22;18312;51.486;7.144;2022-07-23T01:27:50;15.70;99.90
31733;DHT22;18312;51.486;7.144;2022-07-23T01:30:17;15.70;99.90
31733;DHT22;18312;51.486;7.144;2022-07-23T01:32:44;15.80;99.90
31733;DHT22;18312;51.486;7.144;2022-07-23T01:35:11;15.80;99.90
31733;DHT22;18312;51.486;7.144;2022-07-23T01:37:38;15.80;99.90
31733;DHT22;18312;51.486;7.144;2022-07-23T01:40:07;15.70;99.90
31733;DHT22;18312;51.486;7.144;2022-07-23T01:42:34;15.70;99.90
31733;DHT22;18312;51.486;7.144;2022-07-23T01:45:02;15.70;99.90
31733;DHT22;18312;51.486;7.144;2022-07-23T01:47:29;15.80;99.90
31733;DHT22;18312;51.486;7.144;2022-07-23T01:49:56;15.70;99.90
31733;DHT22;18312;51.486;7.144;2022-07-23T01:52:23;15.70;99.90
31733;DHT22;18312;51.486;7.144;2022-07-23T01:54:49;15.80;99.90
31733;DHT22;18312;51.486;7.144;2022-07-23T01:57:18;15.80;99.90
31733;DHT22;18312;51.486;7.144;2022-07-23T01:59:44;15.80;99.90
31733;DHT22;18312;51.486;7.144;2022-07-23T02:02:11;15.80;99.90
31733;DHT22;18312;51.486;7.144;2022-07-23T02:04:38;15.80;99.90
31733;DHT22;18312;51.486;7.144;2022-07-23T02:07:05;15.80;99.90
31733;DHT22;18312;51.486;7.144;2022-07-23T02:09:32;15.80;99.90
31733;DHT22;18312;51.486;7.144;2022-07-23T02:11:59;15.80;99.90
31733;DHT22;18312;51.486;7.144;2022-07-23T02:14:27;15.80;99.90
31733;DHT22;18312;51.486;7.144;2022-07-23T02:16:54;15.70;99.90
31733;DHT22;18312;51.486;7.144;2022-07-23T02:19:21;15.70;99.90
31733;DHT22;18312;51.486;7.144;2022-07-23T02:21:48;15.70;99.90
31733;DHT22;18312;51.486;7.144;2022-07-23T02:24:15;15.70;99.90
31733;DHT22;18312;51.486;7.144;2022-07-23T02:26:42;15.70;99.90
31733;DHT22;18312;51.486;7.144;2022-07-23T02:29:09;15.70;99.90
31733;DHT22;18312;51.486;7.144;2022-07-23T02:31:37;15.70;99.90
31733;DHT22;18312;51.486;7.144;2022-07-23T02:34:05;15.70;99.90
31733;DHT22;18312;51.486;7.144;2022-07-23T02:36:32;15.80;99.90
31733;DHT22;18312;51.486;7.144;2022-07-23T02:38:59;15.60;99.90
31733;DHT22;18312;51.486;7.144;2022-07-23T02:41:26;15.60;99.90
31733;DHT22;18312;51.486;7.144;2022-07-23T02:43:53;15.50;99.90
31733;DHT22;18312;51.486;7.144;2022-07-23T02:46:19;15.50;99.90
31733;DHT22;18312;51.486;7.144;2022-07-23T02:48:48;15.50;99.90
31733;DHT22;18312;51.486;7.144;2022-07-23T02:51:14;15.40;99.90
31733;DHT22;18312;51.486;7.144;2022-07-23T02:53:41;15.30;99.90
31733;DHT22;18312;51.486;7.144;2022-07-23T02:56:08;15.20;99.90
31733;DHT22;18312;51.486;7.144;2022-07-23T02:58:35;15.20;99.90
31733;DHT22;18312;51.486;7.144;2022-07-23T03:01:02;15.20;99.90
31733;DHT22;18312;51.486;7.144;2022-07-23T03:03:29;15.10;99.90
31733;DHT22;18312;51.486;7.144;2022-07-23T03:05:57;15.10;99.90
31733;DHT22;18312;51.486;7.144;2022-07-23T03:08:24;15.00;99.90
31733;DHT22;18312;51.486;7.144;2022-07-23T03:10:51;15.10;99.90
31733;DHT22;18312;51.486;7.144;2022-07-23T03:13:17;15.10;99.90
31733;DHT22;18312;51.486;7.144;2022-07-23T03:15:44;15.20;99.90
31733;DHT22;18312;51.486;7.144;2022-07-23T03:18:11;15.20;99.90
31733;DHT22;18312;51.486;7.144;2022-07-23T03:20:38;15.20;99.90
31733;DHT22;18312;51.486;7.144;2022-07-23T03:23:06;15.10;99.90
31733;DHT22;18312;51.486;7.144;2022-07-23T03:25:33;15.10;99.90
31733;DHT22;18312;51.486;7.144;2022-07-23T03:28:00;15.10;99.90
31733;DHT22;18312;51.486;7.144;2022-07-23T03:30:26;15.10;99.90
31733;DHT22;18312;51.486;7.144;2022-07-23T03:32:53;15.00;99.90
31733;DHT22;18312;51.486;7.144;2022-07-23T03:35:20;15.00;99.90
31733;DHT22;18312;51.486;7.144;2022-07-23T03:37:47;14.90;99.90
31733;DHT22;18312;51.486;7.144;2022-07-23T03:40:15;14.80;99.90
31733;DHT22;18312;51.486;7.144;2022-07-23T03:42:42;14.70;99.90
31733;DHT22;18312;51.486;7.144;2022-07-23T03:45:09;14.70;99.90
31733;DHT22;18312;51.486;7.144;2022-07-23T03:47:36;14.70;99.90
31733;DHT22;18312;51.486;7.144;2022-07-23T03:50:05;14.60;99.90
31733;DHT22;18312;51.486;7.144;2022-07-23T03:52:32;14.50;99.90
31733;DHT22;18312;51.486;7.144;2022-07-23T03:54:59;14.50;99.90
31733;DHT22;18312;51.486;7.144;2022-07-23T03:57:27;14.50;99.90
31733;DHT22;18312;51.486;7.144;2022-07-23T03:59:54;14.40;99.90
31733;DHT22;18312;51.486;7.144;2022-07-23T04:02:21;14.30;99.90
31733;DHT22;18312;51.486;7.144;2022-07-23T04:04:47;14.40;99.90
31733;DHT22;18312;51.486;7.144;2022-07-23T04:07:15;14.30;99.90
31733;DHT22;18312;51.486;7.144;2022-07-23T04:09:43;14.40;99.90
31733;DHT22;18312;51.486;7.144;2022-07-23T04:12:10;14.40;99.90
31733;DHT22;18312;51.486;7.144;2022-07-23T04:14:38;14.30;99.90
31733;DHT22;18312;51.486;7.144;2022-07-23T04:17:04;14.30;99.90
31733;DHT22;18312;51.486;7.144;2022-07-23T04:19:32;14.30;99.90
31733;DHT22;18312;51.486;7.144;2022-07-23T04:22:01;14.30;99.90
31733;DHT22;18312;51.486;7.144;2022-07-23T04:24:27;14.30;99.90
31733;DHT22;18312;51.486;7.144;2022-07-23T04:26:54;14.30;99.90
31733;DHT22;18312;51.486;7.144;2022-07-23T04:29:21;14.40;99.90
31733;DHT22;18312;51.486;7.144;2022-07-23T04:31:49;14.40;99.90
31733;DHT22;18312;51.486;7.144;2022-07-23T04:34:16;14.40;99.90
31733;DHT22;18312;51.486;7.144;2022-07-23T04:36:43;14.50;99.90
31733;DHT22;18312;51.486;7.144;2022-07-23T04:39:10;14.50;99.90
31733;DHT22;18312;51.486;7.144;2022-07-23T04:41:37;14.50;99.90
31733;DHT22;18312;51.486;7.144;2022-07-23T04:44:04;14.50;99.90
31733;DHT22;18312;51.486;7.144;2022-07-23T04:46:31;14.50;99.90
31733;DHT22;18312;51.486;7.144;2022-07-23T04:48:59;14.60;99.90
31733;DHT22;18312;51.486;7.144;2022-07-23T04:51:26;14.70;99.90
31733;DHT22;18312;51.486;7.144;2022-07-23T04:53:54;14.70;99.90
31733;DHT22;18312;51.486;7.144;2022-07-23T04:56:21;14.70;99.90
31733;DHT22;18312;51.486;7.144;2022-07-23T04:58:48;14.80;99.90
31733;DHT22;18312;51.486;7.144;2022-07-23T05:01:15;14.90;99.90
31733;DHT22;18312;51.486;7.144;2022-07-23T05:03:42;14.90;99.90
31733;DHT22;18312;51.486;7.144;2022-07-23T05:06:10;15.10;99.90
31733;DHT22;18312;51.486;7.144;2022-07-23T05:08:37;15.20;99.90
31733;DHT22;18312;51.486;7.144;2022-07-23T05:11:04;15.20;99.90
31733;DHT22;18312;51.486;7.144;2022-07-23T05:13:30;15.20;99.90
31733;DHT22;18312;51.486;7.144;2022-07-23T05:15:57;15.30;99.90
31733;DHT22;18312;51.486;7.144;2022-07-23T05:18:24;15.30;99.90
31733;DHT22;18312;51.486;7.144;2022-07-23T05:20:50;15.40;99.90
31733;DHT22;18312;51.486;7.144;2022-07-23T05:23:19;15.40;99.90
31733;DHT22;18312;51.486;7.144;2022-07-23T05:25:45;15.50;99.90
31733;DHT22;18312;51.486;7.144;2022-07-23T05:28:13;15.50;99.90
31733;DHT22;18312;51.486;7.144;2022-07-23T05:30:40;15.70;99.90
31733;DHT22;18312;51.486;7.144;2022-07-23T05:33:06;15.70;99.90
31733;DHT22;18312;51.486;7.144;2022-07-23T05:35:33;15.70;99.90
31733;DHT22;18312;51.486;7.144;2022-07-23T05:38:00;15.80;99.90
31733;DHT22;18312;51.486;7.144;2022-07-23T05:40:28;15.80;99.90
31733;DHT22;18312;51.486;7.144;2022-07-23T05:42:55;15.90;99.90
31733;DHT22;18312;51.486;7.144;2022-07-23T05:45:22;15.90;99.90
31733;DHT22;18312;51.486;7.144;2022-07-23T05:47:49;16.00;99.90
31733;DHT22;18312;51.486;7.144;2022-07-23T05:50:16;16.00;99.90
31733;DHT22;18312;51.486;7.144;2022-07-23T05:52:44;16.20;99.90
31733;DHT22;18312;51.486;7.144;2022-07-23T05:55:11;16.40;99.90
31733;DHT22;18312;51.486;7.144;2022-07-23T05:57:40;16.50;99.90
31733;DHT22;18312;51.486;7.144;2022-07-23T06:00:08;17.00;99.90
31733;DHT22;18312;51.486;7.144;2022-07-23T06:02:37;18.50;99.90
31733;DHT22;18312;51.486;7.144;2022-07-23T06:05:06;20.00;99.90
31733;DHT22;18312;51.486;7.144;2022-07-23T06:07:34;21.30;99.90
31733;DHT22;18312;51.486;7.144;2022-07-23T06:10:04;21.80;99.90
31733;DHT22;18312;51.486;7.144;2022-07-23T06:12:30;22.40;99.90
31733;DHT22;18312;51.486;7.144;2022-07-23T06:14:58;22.70;99.90
31733;DHT22;18312;51.486;7.144;2022-07-23T06:17:25;22.70;99.90
31733;DHT22;18312;51.486;7.144;2022-07-23T06:19:52;23.30;99.90
31733;DHT22;18312;51.486;7.144;2022-07-23T06:22:19;23.70;99.90
31733;DHT22;18312;51.486;7.144;2022-07-23T06:24:46;24.40;99.90
31733;DHT22;18312;51.486;7.144;2022-07-23T06:27:13;24.60;99.90
31733;DHT22;18312;51.486;7.144;2022-07-23T06:29:40;24.70;99.90
31733;DHT22;18312;51.486;7.144;2022-07-23T06:32:08;24.80;99.90
31733;DHT22;18312;51.486;7.144;2022-07-23T06:34:35;24.80;99.90
31733;DHT22;18312;51.486;7.144;2022-07-23T06:37:02;24.90;99.90
31733;DHT22;18312;51.486;7.144;2022-07-23T06:39:28;24.60;99.20
31733;DHT22;18312;51.486;7.144;2022-07-23T06:41:55;23.40;99.90
31733;DHT22;18312;51.486;7.144;2022-07-23T06:44:27;22.60;99.90
31733;DHT22;18312;51.486;7.144;2022-07-23T06:46:54;21.50;99.90
31733;DHT22;18312;51.486;7.144;2022-07-23T06:49:23;21.10;99.90
31733;DHT22;18312;51.486;7.144;2022-07-23T06:51:53;20.40;99.90
31733;DHT22;18312;51.486;7.144;2022-07-23T06:54:21;19.90;99.90
31733;DHT22;18312;51.486;7.144;2022-07-23T06:56:47;20.20;99.90
31733;DHT22;18312;51.486;7.144;2022-07-23T06:59:14;19.50;99.90
31733;DHT22;18312;51.486;7.144;2022-07-23T07:01:50;19.20;99.90
31733;DHT22;18312;51.486;7.144;2022-07-23T07:04:25;19.40;99.90
31733;DHT22;18312;51.486;7.144;2022-07-23T07:07:09;19.60;99.90
31733;DHT22;18312;51.486;7.144;2022-07-23T07:09:37;19.90;99.90
31733;DHT22;18312;51.486;7.144;2022-07-23T07:12:05;19.70;99.90
31733;DHT22;18312;51.486;7.144;2022-07-23T07:14:33;19.20;99.90
31733;DHT22;18312;51.486;7.144;2022-07-23T07:17:00;18.90;99.90
31733;DHT22;18312;51.486;7.144;2022-07-23T07:19:31;19.10;99.90
31733;DHT22;18312;51.486;7.144;2022-07-23T07:21:58;19.40;99.90
31733;DHT22;18312;51.486;7.144;2022-07-23T07:24:25;20.20;99.90
31733;DHT22;18312;51.486;7.144;2022-07-23T07:26:52;19.80;99.90
31733;DHT22;18312;51.486;7.144;2022-07-23T07:29:19;20.00;99.90
31733;DHT22;18312;51.486;7.144;2022-07-23T07:31:46;19.90;99.90
31733;DHT22;18312;51.486;7.144;2022-07-23T07:34:33;19.40;99.90
31733;DHT22;18312;51.486;7.144;2022-07-23T07:37:12;21.20;99.90
31733;DHT22;18312;51.486;7.144;2022-07-23T07:39:51;21.70;99.90
31733;DHT22;18312;51.486;7.144;2022-07-23T07:42:31;20.90;99.90
31733;DHT22;18312;51.486;7.144;2022-07-23T07:45:17;20.40;99.90
31733;DHT22;18312;51.486;7.144;2022-07-23T07:48:01;20.50;99.90
31733;DHT22;18312;51.486;7.144;2022-07-23T07:50:44;20.60;99.90
31733;DHT22;18312;51.486;7.144;2022-07-23T07:53:25;19.80;99.90
31733;DHT22;18312;51.486;7.144;2022-07-23T07:56:14;20.50;99.90
31733;DHT22;18312;51.486;7.144;2022-07-23T07:58:54;21.00;99.90
31733;DHT22;18312;51.486;7.144;2022-07-23T08:01:25;21.10;99.90
31733;DHT22;18312;51.486;7.144;2022-07-23T08:03:52;20.70;99.90
31733;DHT22;18312;51.486;7.144;2022-07-23T08:06:28;20.60;99.90
31733;DHT22;18312;51.486;7.144;2022-07-23T08:08:55;20.90;99.90
31733;DHT22;18312;51.486;7.144;2022-07-23T08:11:22;22.30;99.90
31733;DHT22;18312;51.486;7.144;2022-07-23T08:13:51;23.20;99.90
31733;DHT22;18312;51.486;7.144;2022-07-23T08:16:18;23.80;99.90
31733;DHT22;18312;51.486;7.144;2022-07-23T08:18:44;22.40;99.90
31733;DHT22;18312;51.486;7.144;2022-07-23T08:21:12;21.80;99.90
31733;DHT22;18312;51.486;7.144;2022-07-23T08:23:40;21.50;99.90
31733;DHT22;18312;51.486;7.144;2022-07-23T08:26:06;21.70;99.90
31733;DHT22;18312;51.486;7.144;2022-07-23T08:28:33;21.20;99.90
31733;DHT22;18312;51.486;7.144;2022-07-23T08:31:01;20.50;99.90
31733;DHT22;18312;51.486;7.144;2022-07-23T08:33:28;20.10;99.90
31733;DHT22;18312;51.486;7.144;2022-07-23T08:35:55;20.20;99.90
31733;DHT22;18312;51.486;7.144;2022-07-23T08:38:22;20.70;99.90
31733;DHT22;18312;51.486;7.144;2022-07-23T08:40:53;20.90;99.90
31733;DHT22;18312;51.486;7.144;2022-07-23T08:43:23;20.90;99.90
31733;DHT22;18312;51.486;7.144;2022-07-23T08:45:53;20.90;99.90
31733;DHT22;18312;51.486;7.144;2022-07-23T08:48:23;20.80;99.90
31733;DHT22;18312;51.486;7.144;2022-07-23T08:50:51;20.50;99.90
31733;DHT22;18312;51.486;7.144;2022-07-23T08:53:20;20.60;99.90
31733;DHT22;18312;51.486;7.144;2022-07-23T08:55:48;20.70;99.90
31733;DHT22;18312;51.486;7.144;2022-07-23T08:58:17;20.70;99.90
31733;DHT22;18312;51.486;7.144;2022-07-23T09:00:45;20.30;99.90
31733;DHT22;18312;51.486;7.144;2022-07-23T09:03:15;21.20;99.90
31733;DHT22;18312;51.486;7.144;2022-07-23T09:05:42;21.80;99.90
31733;DHT22;18312;51.486;7.144;2022-07-23T09:08:11;21.70;99.90
31733;DHT22;18312;51.486;7.144;2022-07-23T09:10:46;21.40;99.90
31733;DHT22;18312;51.486;7.144;2022-07-23T09:13:28;21.10;99.90
31733;DHT22;18312;51.486;7.144;2022-07-23T09:15:59;21.00;99.90
31733;DHT22;18312;51.486;7.144;2022-07-23T09:18:40;21.30;99.90
31733;DHT22;18312;51.486;7.144;2022-07-23T09:21:11;21.30;99.90
31733;DHT22;18312;51.486;7.144;2022-07-23T09:23:40;21.30;99.90
31733;DHT22;18312;51.486;7.144;2022-07-23T09:26:29;20.90;99.90
31733;DHT22;18312;51.486;7.144;2022-07-23T09:29:01;21.60;99.90
31733;DHT22;18312;51.486;7.144;2022-07-23T09:31:32;21.50;99.90
31733;DHT22;18312;51.486;7.144;2022-07-23T09:34:07;21.60;99.90
31733;DHT22;18312;51.486;7.144;2022-07-23T09:36:34;21.70;99.90
31733;DHT22;18312;51.486;7.144;2022-07-23T09:39:02;21.50;99.90
31733;DHT22;18312;51.486;7.144;2022-07-23T09:41:35;21.60;99.90
31733;DHT22;18312;51.486;7.144;2022-07-23T09:44:09;21.60;99.90
31733;DHT22;18312;51.486;7.144;2022-07-23T09:46:37;22.60;99.90
31733;DHT22;18312;51.486;7.144;2022-07-23T09:49:14;24.00;98.70
31733;DHT22;18312;51.486;7.144;2022-07-23T09:51:53;24.20;95.30
31733;DHT22;18312;51.486;7.144;2022-07-23T09:54:26;24.40;95.20
31733;DHT22;18312;51.486;7.144;2022-07-23T09:56:54;24.20;96.80
31733;DHT22;18312;51.486;7.144;2022-07-23T09:59:25;23.60;95.50
31733;DHT22;18312;51.486;7.144;2022-07-23T10:01:55;23.70;96.10
31733;DHT22;18312;51.486;7.144;2022-07-23T10:04:23;24.00;96.50
31733;DHT22;18312;51.486;7.144;2022-07-23T10:06:52;23.60;94.30
31733;DHT22;18312;51.486;7.144;2022-07-23T10:09:23;23.60;97.10
31733;DHT22;18312;51.486;7.144;2022-07-23T10:11:50;23.40;96.10
31733;DHT22;18312;51.486;7.144;2022-07-23T10:14:18;23.90;96.40
31733;DHT22;18312;51.486;7.144;2022-07-23T10:16:47;24.50;97.50
31733;DHT22;18312;51.486;7.144;2022-07-23T10:19:14;23.20;93.50
31733;DHT22;18312;51.486;7.144;2022-07-23T10:21:44;23.30;94.60
31733;DHT22;18312;51.486;7.144;2022-07-23T10:24:18;23.40;94.90
31733;DHT22;18312;51.486;7.144;2022-07-23T10:26:55;23.60;95.30
31733;DHT22;18312;51.486;7.144;2022-07-23T10:29:36;24.20;95.50
31733;DHT22;18312;51.486;7.144;2022-07-23T10:32:12;24.50;92.00
31733;DHT22;18312;51.486;7.144;2022-07-23T10:34:51;24.20;94.60
31733;DHT22;18312;51.486;7.144;2022-07-23T10:37:22;24.60;93.80
31733;DHT22;18312;51.486;7.144;2022-07-23T10:40:09;24.90;94.20
31733;DHT22;18312;51.486;7.144;2022-07-23T10:42:36;24.80;93.60
31733;DHT22;18312;51.486;7.144;2022-07-23T10:45:26;24.80;92.30
31733;DHT22;18312;51.486;7.144;2022-07-23T10:47:55;24.40;93.80
31733;DHT22;18312;51.486;7.144;2022-07-23T10:50:24;24.00;93.40
31733;DHT22;18312;51.486;7.144;2022-07-23T10:53:15;24.60;92.80
31733;DHT22;18312;51.486;7.144;2022-07-23T10:55:46;24.60;93.80
31733;DHT22;18312;51.486;7.144;2022-07-23T10:58:18;25.00;95.30
31733;DHT22;18312;51.486;7.144;2022-07-23T11:00:45;24.40;92.10
31733;DHT22;18312;51.486;7.144;2022-07-23T11:03:31;25.10;93.00
31733;DHT22;18312;51.486;7.144;2022-07-23T11:06:04;25.60;92.90
31733;DHT22;18312;51.486;7.144;2022-07-23T11:08:31;26.00;91.80
31733;DHT22;18312;51.486;7.144;2022-07-23T11:11:09;26.10;89.90
31733;DHT22;18312;51.486;7.144;2022-07-23T11:13:42;26.10;90.00
31733;DHT22;18312;51.486;7.144;2022-07-23T11:16:13;26.00;90.40
31733;DHT22;18312;51.486;7.144;2022-07-23T11:19:08;25.80;90.50
31733;DHT22;18312;51.486;7.144;2022-07-23T11:21:46;26.50;89.90
31733;DHT22;18312;51.486;7.144;2022-07-23T11:24:16;26.40;87.00
31733;DHT22;18312;51.486;7.144;2022-07-23T11:26:59;26.20;88.60
31733;DHT22;18312;51.486;7.144;2022-07-23T11:29:46;25.00;84.20
31733;DHT22;18312;51.486;7.144;2022-07-23T11:32:33;26.00;88.00
31733;DHT22;18312;51.486;7.144;2022-07-23T11:35:22;25.00;89.60
31733;DHT22;18312;51.486;7.144;2022-07-23T11:37:49;24.70;89.50
31733;DHT22;18312;51.486;7.144;2022-07-23T11:40:19;24.90;90.10
31733;DHT22;18312;51.486;7.144;2022-07-23T11:42:54;25.30;87.50
31733;DHT22;18312;51.486;7.144;2022-07-23T11:45:22;25.10;85.80
31733;DHT22;18312;51.486;7.144;2022-07-23T11:47:49;24.60;89.00
31733;DHT22;18312;51.486;7.144;2022-07-23T11:50:17;24.30;88.50
31733;DHT22;18312;51.486;7.144;2022-07-23T11:52:44;24.20;89.00
31733;DHT22;18312;51.486;7.144;2022-07-23T11:55:11;24.50;87.50
31733;DHT22;18312;51.486;7.144;2022-07-23T11:57:42;24.10;86.90
31733;DHT22;18312;51.486;7.144;2022-07-23T12:00:11;24.80;87.50
31733;DHT22;18312;51.486;7.144;2022-07-23T12:02:41;25.10;86.60
31733;DHT22;18312;51.486;7.144;2022-07-23T12:05:12;25.20;86.00
31733;DHT22;18312;51.486;7.144;2022-07-23T12:07:42;24.80;86.60
31733;DHT22;18312;51.486;7.144;2022-07-23T12:10:13;25.10;88.80
31733;DHT22;18312;51.486;7.144;2022-07-23T12:12:41;25.30;84.80
31733;DHT22;18312;51.486;7.144;2022-07-23T12:15:09;25.20;85.60
31733;DHT22;18312;51.486;7.144;2022-07-23T12:17:38;25.10;85.20
31733;DHT22;18312;51.486;7.144;2022-07-23T12:20:12;24.80;84.20
31733;DHT22;18312;51.486;7.144;2022-07-23T12:22:43;25.20;86.10
31733;DHT22;18312;51.486;7.144;2022-07-23T12:25:11;26.20;86.70
31733;DHT22;18312;51.486;7.144;2022-07-23T12:27:38;25.70;84.60
31733;DHT22;18312;51.486;7.144;2022-07-23T12:30:22;26.10;82.40
31733;DHT22;18312;51.486;7.144;2022-07-23T12:32:51;26.60;84.60
31733;DHT22;18312;51.486;7.144;2022-07-23T12:35:19;26.60;83.00
31733;DHT22;18312;51.486;7.144;2022-07-23T12:37:49;26.80;81.40
31733;DHT22;18312;51.486;7.144;2022-07-23T12:40:22;27.20;81.70
31733;DHT22;18312;51.486;7.144;2022-07-23T12:42:51;26.60;82.60
31733;DHT22;18312;51.486;7.144;2022-07-23T12:45:19;26.80;83.60
31733;DHT22;18312;51.486;7.144;2022-07-23T12:48:01;26.90;81.40
31733;DHT22;18312;51.486;7.144;2022-07-23T12:50:44;26.90;81.80
31733;DHT22;18312;51.486;7.144;2022-07-23T12:53:17;27.00;81.00
31733;DHT22;18312;51.486;7.144;2022-07-23T12:55:46;27.20;80.90
31733;DHT22;18312;51.486;7.144;2022-07-23T12:58:14;26.30;80.40
31733;DHT22;18312;51.486;7.144;2022-07-23T13:00:56;26.40;81.70
31733;DHT22;18312;51.486;7.144;2022-07-23T13:03:25;26.90;82.90
31733;DHT22;18312;51.486;7.144;2022-07-23T13:05:52;27.30;80.00
31733;DHT22;18312;51.486;7.144;2022-07-23T13:08:21;26.80;76.20
31733;DHT22;18312;51.486;7.144;2022-07-23T13:10:48;27.30;78.20
31733;DHT22;18312;51.486;7.144;2022-07-23T13:13:17;27.60;77.40
31733;DHT22;18312;51.486;7.144;2022-07-23T13:15:44;27.40;76.30
31733;DHT22;18312;51.486;7.144;2022-07-23T13:18:11;27.10;75.70
31733;DHT22;18312;51.486;7.144;2022-07-23T13:20:37;27.60;75.60
31733;DHT22;18312;51.486;7.144;2022-07-23T13:23:05;27.50;75.00
31733;DHT22;18312;51.486;7.144;2022-07-23T13:25:33;27.20;74.20
31733;DHT22;18312;51.486;7.144;2022-07-23T13:28:00;27.30;73.30
31733;DHT22;18312;51.486;7.144;2022-07-23T13:30:27;28.00;73.80
31733;DHT22;18312;51.486;7.144;2022-07-23T13:32:54;28.00;75.00
31733;DHT22;18312;51.486;7.144;2022-07-23T13:35:21;28.50;71.20
31733;DHT22;18312;51.486;7.144;2022-07-23T13:37:47;28.70;73.30
31733;DHT22;18312;51.486;7.144;2022-07-23T13:40:14;28.70;71.20
31733;DHT22;18312;51.486;7.144;2022-07-23T13:42:42;28.50;69.20
31733;DHT22;18312;51.486;7.144;2022-07-23T13:45:09;28.90;70.00
31733;DHT22;18312;51.486;7.144;2022-07-23T13:47:36;28.20;68.80
31733;DHT22;18312;51.486;7.144;2022-07-23T13:50:04;28.90;72.10
31733;DHT22;18312;51.486;7.144;2022-07-23T13:52:31;28.80;70.40
31733;DHT22;18312;51.486;7.144;2022-07-23T13:54:59;28.40;71.00
31733;DHT22;18312;51.486;7.144;2022-07-23T13:57:26;28.10;70.80
31733;DHT22;18312;51.486;7.144;2022-07-23T13:59:54;27.20;72.80
31733;DHT22;18312;51.486;7.144;2022-07-23T14:02:21;26.80;72.80
31733;DHT22;18312;51.486;7.144;2022-07-23T14:04:48;27.10;70.70
31733;DHT22;18312;51.486;7.144;2022-07-23T14:07:15;27.80;70.60
31733;DHT22;18312;51.486;7.144;2022-07-23T14:09:42;27.70;69.70
31733;DHT22;18312;51.486;7.144;2022-07-23T14:12:16;28.00;71.30
31733;DHT22;18312;51.486;7.144;2022-07-23T14:14:43;28.00;70.40
31733;DHT22;18312;51.486;7.144;2022-07-23T14:17:11;28.50;70.50
31733;DHT22;18312;51.486;7.144;2022-07-23T14:19:38;29.00;70.90
31733;DHT22;18312;51.486;7.144;2022-07-23T14:22:05;28.80;69.20
31733;DHT22;18312;51.486;7.144;2022-07-23T14:24:31;28.90;68.90
31733;DHT22;18312;51.486;7.144;2022-07-23T14:26:59;28.70;69.10
31733;DHT22;18312;51.486;7.144;2022-07-23T14:29:26;28.90;68.00
31733;DHT22;18312;51.486;7.144;2022-07-23T14:31:53;29.40;69.50
31733;DHT22;18312;51.486;7.144;2022-07-23T14:34:21;29.30;66.90
31733;DHT22;18312;51.486;7.144;2022-07-23T14:36:48;29.00;65.70
31733;DHT22;18312;51.486;7.144;2022-07-23T14:39:15;28.80;65.90
31733;DHT22;18312;51.486;7.144;2022-07-23T14:41:42;28.60;66.70
31733;DHT22;18312;51.486;7.144;2022-07-23T14:44:09;28.10;68.50
31733;DHT22;18312;51.486;7.144;2022-07-23T14:46:36;28.00;67.70
31733;DHT22;18312;51.486;7.144;2022-07-23T14:49:03;28.50;68.10
31733;DHT22;18312;51.486;7.144;2022-07-23T14:51:31;28.40;68.70
31733;DHT22;18312;51.486;7.144;2022-07-23T14:53:58;28.20;67.90
31733;DHT22;18312;51.486;7.144;2022-07-23T14:56:25;28.40;68.00
31733;DHT22;18312;51.486;7.144;2022-07-23T14:58:51;28.70;66.40
31733;DHT22;18312;51.486;7.144;2022-07-23T15:01:21;28.90;67.20
31733;DHT22;18312;51.486;7.144;2022-07-23T15:03:48;28.70;65.30
31733;DHT22;18312;51.486;7.144;2022-07-23T15:06:16;28.30;66.10
31733;DHT22;18312;51.486;7.144;2022-07-23T15:08:44;28.90;66.70
31733;DHT22;18312;51.486;7.144;2022-07-23T15:11:11;29.70;66.20
31733;DHT22;18312;51.486;7.144;2022-07-23T15:13:38;29.20;66.00
31733;DHT22;18312;51.486;7.144;2022-07-23T15:16:07;30.30;66.10
31733;DHT22;18312;51.486;7.144;2022-07-23T15:18:33;31.30;64.70
31733;DHT22;18312;51.486;7.144;2022-07-23T15:21:01;32.70;61.60
31733;DHT22;18312;51.486;7.144;2022-07-23T15:23:28;32.30;60.60
31733;DHT22;18312;51.486;7.144;2022-07-23T15:25:56;31.90;61.40
31733;DHT22;18312;51.486;7.144;2022-07-23T15:28:23;32.80;60.50
31733;DHT22;18312;51.486;7.144;2022-07-23T15:30:50;31.00;60.20
31733;DHT22;18312;51.486;7.144;2022-07-23T15:33:18;29.90;62.10
31733;DHT22;18312;51.486;7.144;2022-07-23T15:35:45;28.60;62.60
31733;DHT22;18312;51.486;7.144;2022-07-23T15:38:13;28.20;66.50
31733;DHT22;18312;51.486;7.144;2022-07-23T15:40:40;27.90;67.60
31733;DHT22;18312;51.486;7.144;2022-07-23T15:43:08;27.80;66.70
31733;DHT22;18312;51.486;7.144;2022-07-23T15:45:35;27.70;66.40